sensor_id;sensor_type;location;lat;lon;timestamp;temperature;humidity
15900;DHT22;8048;50.644;6.184;2022-08-19T00:01:27;14.00;99.90
15900;DHT22;8048;50.644;6.184;2022-08-19T00:03:58;14.00;99.90
15900;DHT22;8048;50.644;6.184;2022-08-19T00:06:25;14.00;99.90
15900;DHT22;8048;50.644;6.184;2022-08-19T00:08:51;14.00;99.90
15900;DHT22;8048;50.644;6.184;2022-08-19T00:11:17;14.00;99.90
15900;DHT22;8048;50.644;6.184;2022-08-19T00:13:43;14.00;99.90
15900;DHT22;8048;50.644;6.184;2022-08-19T00:16:08;13.90;99.90
15900;DHT22;8048;50.644;6.184;2022-08-19T00:18:34;13.80;99.90
15900;DHT22;8048;50.644;6.184;2022-08-19T00:21:00;13.80;99.90
15900;DHT22;8048;50.644;6.184;2022-08-19T00:23:26;13.80;99.90
15900;DHT22;8048;50.644;6.184;2022-08-19T00:25:52;13.80;99.90
15900;DHT22;8048;50.644;6.184;2022-08-19T00:28:19;13.70;99.90
15900;DHT22;8048;50.644;6.184;2022-08-19T00:30:46;13.70;99.90
15900;DHT22;8048;50.644;6.184;2022-08-19T00:33:11;13.70;99.90
15900;DHT22;8048;50.644;6.184;2022-08-19T00:35:37;13.60;99.90
15900;DHT22;8048;50.644;6.184;2022-08-19T00:38:04;13.60;99.90
15900;DHT22;8048;50.644;6.184;2022-08-19T00:40:31;13.60;99.90
15900;DHT22;8048;50.644;6.184;2022-08-19T00:42:57;13.50;99.90
15900;DHT22;8048;50.644;6.184;2022-08-19T00:45:26;13.50;99.90
15900;DHT22;8048;50.644;6.184;2022-08-19T00:47:53;13.50;99.90
15900;DHT22;8048;50.644;6.184;2022-08-19T00:50:20;13.50;99.90
15900;DHT22;8048;50.644;6.184;2022-08-19T00:52:48;13.50;99.90
15900;DHT22;8048;50.644;6.184;2022-08-19T00:55:19;13.40;99.90
15900;DHT22;8048;50.644;6.184;2022-08-19T00:57:50;13.40;99.90
15900;DHT22;8048;50.644;6.184;2022-08-19T01:00:18;13.40;99.90
15900;DHT22;8048;50.644;6.184;2022-08-19T01:02:44;13.30;99.90
15900;DHT22;8048;50.644;6.184;2022-08-19T01:05:17;13.40;99.90
15900;DHT22;8048;50.644;6.184;2022-08-19T01:07:44;13.30;99.90
15900;DHT22;8048;50.644;6.184;2022-08-19T01:10:15;13.30;99.90
15900;DHT22;8048;50.644;6.184;2022-08-19T01:12:44;13.20;99.90
15900;DHT22;8048;50.644;6.184;2022-08-19T01:15:12;13.20;99.90
15900;DHT22;8048;50.644;6.184;2022-08-19T01:17:40;13.20;99.90
15900;DHT22;8048;50.644;6.184;2022-08-19T01:20:11;13.20;99.90
15900;DHT22;8048;50.644;6.184;2022-08-19T01:22:45;13.20;99.90
15900;DHT22;8048;50.644;6.184;2022-08-19T01:25:17;13.20;99.90
15900;DHT22;8048;50.644;6.184;2022-08-19T01:27:46;13.10;99.90
15900;DHT22;8048;50.644;6.184;2022-08-19T01:30:28;13.10;99.90
15900;DHT22;8048;50.644;6.184;2022-08-19T01:32:54;13.10;99.90
15900;DHT22;8048;50.644;6.184;2022-08-19T01:35:22;13.00;99.90
15900;DHT22;8048;50.644;6.184;2022-08-19T01:37:57;13.00;99.90
15900;DHT22;8048;50.644;6.184;2022-08-19T01:40:26;13.00;99.90
15900;DHT22;8048;50.644;6.184;2022-08-19T01:42:53;12.90;99.90
15900;DHT22;8048;50.644;6.184;2022-08-19T01:45:21;12.90;99.90
15900;DHT22;8048;50.644;6.184;2022-08-19T01:47:47;12.90;99.90
15900;DHT22;8048;50.644;6.184;2022-08-19T01:50:13;12.80;99.90
15900;DHT22;8048;50.644;6.184;2022-08-19T01:52:40;12.80;99.90
15900;DHT22;8048;50.644;6.184;2022-08-19T01:55:09;12.80;99.90
15900;DHT22;8048;50.644;6.184;2022-08-19T01:57:35;12.70;99.90
15900;DHT22;8048;50.644;6.184;2022-08-19T02:00:02;12.70;99.90
15900;DHT22;8048;50.644;6.184;2022-08-19T02:02:30;12.70;99.90
15900;DHT22;8048;50.644;6.184;2022-08-19T02:04:56;12.60;99.90
15900;DHT22;8048;50.644;6.184;2022-08-19T02:07:22;12.60;99.90
15900;DHT22;8048;50.644;6.184;2022-08-19T02:09:48;12.60;99.90
15900;DHT22;8048;50.644;6.184;2022-08-19T02:12:14;12.60;99.90
15900;DHT22;8048;50.644;6.184;2022-08-19T02:14:41;12.60;99.90
15900;DHT22;8048;50.644;6.184;2022-08-19T02:17:07;12.60;99.90
15900;DHT22;8048;50.644;6.184;2022-08-19T02:19:33;12.60;99.90
15900;DHT22;8048;50.644;6.184;2022-08-19T02:21:59;12.50;99.90
15900;DHT22;8048;50.644;6.184;2022-08-19T02:24:26;12.50;99.90
15900;DHT22;8048;50.644;6.184;2022-08-19T02:26:52;12.50;99.90
15900;DHT22;8048;50.644;6.184;2022-08-19T02:29:18;12.50;99.90
15900;DHT22;8048;50.644;6.184;2022-08-19T02:31:43;12.40;99.90
15900;DHT22;8048;50.644;6.184;2022-08-19T02:34:09;12.40;99.90
15900;DHT22;8048;50.644;6.184;2022-08-19T02:36:35;12.40;99.90
15900;DHT22;8048;50.644;6.184;2022-08-19T02:39:00;12.40;99.90
15900;DHT22;8048;50.644;6.184;2022-08-19T02:41:29;12.40;99.90
15900;DHT22;8048;50.644;6.184;2022-08-19T02:43:57;12.30;99.90
15900;DHT22;8048;50.644;6.184;2022-08-19T02:46:26;12.30;99.90
15900;DHT22;8048;50.644;6.184;2022-08-19T02:48:54;12.30;99.90
15900;DHT22;8048;50.644;6.184;2022-08-19T02:51:26;12.30;99.90
15900;DHT22;8048;50.644;6.184;2022-08-19T02:53:53;12.20;99.90
15900;DHT22;8048;50.644;6.184;2022-08-19T02:56:19;12.20;99.90
15900;DHT22;8048;50.644;6.184;2022-08-19T02:58:45;12.20;99.90
15900;DHT22;8048;50.644;6.184;2022-08-19T03:01:18;12.20;99.90
15900;DHT22;8048;50.644;6.184;2022-08-19T03:03:44;12.20;99.90
15900;DHT22;8048;50.644;6.184;2022-08-19T03:06:15;12.30;99.90
15900;DHT22;8048;50.644;6.184;2022-08-19T03:08:43;12.20;99.90
15900;DHT22;8048;50.644;6.184;2022-08-19T03:11:22;12.20;99.90
15900;DHT22;8048;50.644;6.184;2022-08-19T03:13:48;12.20;99.90
15900;DHT22;8048;50.644;6.184;2022-08-19T03:16:17;12.20;99.90
15900;DHT22;8048;50.644;6.184;2022-08-19T03:18:43;12.20;99.90
15900;DHT22;8048;50.644;6.184;2022-08-19T03:21:09;12.20;99.90
15900;DHT22;8048;50.644;6.184;2022-08-19T03:23:39;12.10;99.90
15900;DHT22;8048;50.644;6.184;2022-08-19T03:26:05;12.10;99.90
15900;DHT22;8048;50.644;6.184;2022-08-19T03:28:32;12.10;99.90
15900;DHT22;8048;50.644;6.184;2022-08-19T03:31:00;12.10;99.90
15900;DHT22;8048;50.644;6.184;2022-08-19T03:33:27;12.10;99.90
15900;DHT22;8048;50.644;6.184;2022-08-19T03:36:23;12.00;99.90
15900;DHT22;8048;50.644;6.184;2022-08-19T03:38:52;12.10;99.90
15900;DHT22;8048;50.644;6.184;2022-08-19T03:41:21;12.00;99.90
15900;DHT22;8048;50.644;6.184;2022-08-19T03:43:48;12.10;99.90
15900;DHT22;8048;50.644;6.184;2022-08-19T03:46:17;12.00;99.90
15900;DHT22;8048;50.644;6.184;2022-08-19T03:48:47;12.00;99.90
15900;DHT22;8048;50.644;6.184;2022-08-19T03:51:18;12.00;99.90
15900;DHT22;8048;50.644;6.184;2022-08-19T03:53:45;12.00;99.90
15900;DHT22;8048;50.644;6.184;2022-08-19T03:56:12;11.90;99.90
15900;DHT22;8048;50.644;6.184;2022-08-19T03:58:39;12.00;99.90
15900;DHT22;8048;50.644;6.184;2022-08-19T04:01:11;11.90;99.90
15900;DHT22;8048;50.644;6.184;2022-08-19T04:03:38;11.90;99.90
15900;DHT22;8048;50.644;6.184;2022-08-19T04:06:21;11.90;99.90
15900;DHT22;8048;50.644;6.184;2022-08-19T04:08:49;11.90;99.90
15900;DHT22;8048;50.644;6.184;2022-08-19T04:11:18;12.00;99.90
15900;DHT22;8048;50.644;6.184;2022-08-19T04:13:46;11.90;99.90
15900;DHT22;8048;50.644;6.184;2022-08-19T04:16:11;11.90;99.90
15900;DHT22;8048;50.644;6.184;2022-08-19T04:18:38;11.90;99.90
15900;DHT22;8048;50.644;6.184;2022-08-19T04:21:05;12.00;99.90
15900;DHT22;8048;50.644;6.184;2022-08-19T04:25:59;12.00;99.90
15900;DHT22;8048;50.644;6.184;2022-08-19T04:28:25;12.10;99.90
15900;DHT22;8048;50.644;6.184;2022-08-19T04:30:53;12.00;99.90
15900;DHT22;8048;50.644;6.184;2022-08-19T04:33:21;12.10;99.90
15900;DHT22;8048;50.644;6.184;2022-08-19T04:35:49;12.20;99.90
15900;DHT22;8048;50.644;6.184;2022-08-19T04:38:17;12.20;99.90
15900;DHT22;8048;50.644;6.184;2022-08-19T04:40:46;12.30;99.90
15900;DHT22;8048;50.644;6.184;2022-08-19T04:43:31;12.30;99.90
15900;DHT22;8048;50.644;6.184;2022-08-19T04:45:57;12.40;99.90
15900;DHT22;8048;50.644;6.184;2022-08-19T04:48:23;12.40;99.90
15900;DHT22;8048;50.644;6.184;2022-08-19T04:50:53;12.50;99.90
15900;DHT22;8048;50.644;6.184;2022-08-19T04:53:24;12.50;99.90
15900;DHT22;8048;50.644;6.184;2022-08-19T04:55:50;12.60;99.90
15900;DHT22;8048;50.644;6.184;2022-08-19T04:58:16;12.60;99.90
15900;DHT22;8048;50.644;6.184;2022-08-19T05:00:42;12.70;99.90
15900;DHT22;8048;50.644;6.184;2022-08-19T05:03:09;12.80;99.90
15900;DHT22;8048;50.644;6.184;2022-08-19T05:05:39;12.90;99.90
15900;DHT22;8048;50.644;6.184;2022-08-19T05:08:05;13.00;99.90
15900;DHT22;8048;50.644;6.184;2022-08-19T05:10:35;13.10;99.90
15900;DHT22;8048;50.644;6.184;2022-08-19T05:13:01;13.10;99.90
15900;DHT22;8048;50.644;6.184;2022-08-19T05:15:26;13.20;99.90
15900;DHT22;8048;50.644;6.184;2022-08-19T05:17:52;13.40;99.90
15900;DHT22;8048;50.644;6.184;2022-08-19T05:20:38;13.40;99.90
15900;DHT22;8048;50.644;6.184;2022-08-19T05:23:22;13.50;99.90
15900;DHT22;8048;50.644;6.184;2022-08-19T05:25:48;13.60;99.90
15900;DHT22;8048;50.644;6.184;2022-08-19T05:28:13;13.60;99.90
15900;DHT22;8048;50.644;6.184;2022-08-19T05:30:39;13.80;99.90
15900;DHT22;8048;50.644;6.184;2022-08-19T05:33:07;13.80;99.90
15900;DHT22;8048;50.644;6.184;2022-08-19T05:35:36;13.90;99.90
15900;DHT22;8048;50.644;6.184;2022-08-19T05:38:02;14.00;99.90
15900;DHT22;8048;50.644;6.184;2022-08-19T05:40:28;14.10;99.90
15900;DHT22;8048;50.644;6.184;2022-08-19T05:42:54;14.20;99.90
15900;DHT22;8048;50.644;6.184;2022-08-19T05:45:20;14.30;99.90
15900;DHT22;8048;50.644;6.184;2022-08-19T05:47:47;14.30;99.90
15900;DHT22;8048;50.644;6.184;2022-08-19T05:50:13;14.30;99.90
15900;DHT22;8048;50.644;6.184;2022-08-19T05:52:39;14.40;99.90
15900;DHT22;8048;50.644;6.184;2022-08-19T05:55:05;14.50;99.90
15900;DHT22;8048;50.644;6.184;2022-08-19T05:57:31;14.50;99.90
15900;DHT22;8048;50.644;6.184;2022-08-19T05:59:57;14.50;99.90
15900;DHT22;8048;50.644;6.184;2022-08-19T06:02:29;14.50;99.90
15900;DHT22;8048;50.644;6.184;2022-08-19T06:04:55;14.60;99.90
15900;DHT22;8048;50.644;6.184;2022-08-19T06:07:21;14.50;99.90
15900;DHT22;8048;50.644;6.184;2022-08-19T06:09:46;14.50;99.90
15900;DHT22;8048;50.644;6.184;2022-08-19T06:12:12;14.60;99.90
15900;DHT22;8048;50.644;6.184;2022-08-19T06:14:38;14.60;99.90
15900;DHT22;8048;50.644;6.184;2022-08-19T06:17:03;14.70;99.90
15900;DHT22;8048;50.644;6.184;2022-08-19T06:19:30;14.80;99.90
15900;DHT22;8048;50.644;6.184;2022-08-19T06:21:57;14.80;99.90
15900;DHT22;8048;50.644;6.184;2022-08-19T06:24:25;14.90;99.90
15900;DHT22;8048;50.644;6.184;2022-08-19T06:26:53;15.00;99.90
15900;DHT22;8048;50.644;6.184;2022-08-19T06:29:23;15.10;99.90
15900;DHT22;8048;50.644;6.184;2022-08-19T06:31:51;15.20;99.90
15900;DHT22;8048;50.644;6.184;2022-08-19T06:34:18;15.20;99.90
15900;DHT22;8048;50.644;6.184;2022-08-19T06:36:49;15.30;99.90
15900;DHT22;8048;50.644;6.184;2022-08-19T06:39:19;15.40;99.90
15900;DHT22;8048;50.644;6.184;2022-08-19T06:41:48;15.40;99.90
15900;DHT22;8048;50.644;6.184;2022-08-19T06:44:14;15.50;99.90
15900;DHT22;8048;50.644;6.184;2022-08-19T06:46:41;15.50;99.90
15900;DHT22;8048;50.644;6.184;2022-08-19T06:49:07;15.60;99.90
15900;DHT22;8048;50.644;6.184;2022-08-19T06:51:35;15.60;99.90
15900;DHT22;8048;50.644;6.184;2022-08-19T06:54:01;15.60;99.90
15900;DHT22;8048;50.644;6.184;2022-08-19T06:56:29;15.70;99.90
15900;DHT22;8048;50.644;6.184;2022-08-19T06:59:06;15.80;99.90
15900;DHT22;8048;50.644;6.184;2022-08-19T07:01:39;15.90;99.90
15900;DHT22;8048;50.644;6.184;2022-08-19T07:04:06;16.00;99.90
15900;DHT22;8048;50.644;6.184;2022-08-19T07:06:32;16.10;99.90
15900;DHT22;8048;50.644;6.184;2022-08-19T07:08:58;16.20;99.90
15900;DHT22;8048;50.644;6.184;2022-08-19T07:11:24;16.40;99.90
15900;DHT22;8048;50.644;6.184;2022-08-19T07:13:50;16.50;99.90
15900;DHT22;8048;50.644;6.184;2022-08-19T07:16:18;16.60;99.90
15900;DHT22;8048;50.644;6.184;2022-08-19T07:18:48;16.60;99.90
15900;DHT22;8048;50.644;6.184;2022-08-19T07:21:21;16.70;99.90
15900;DHT22;8048;50.644;6.184;2022-08-19T07:23:48;16.80;99.90
15900;DHT22;8048;50.644;6.184;2022-08-19T07:26:18;17.00;99.90
15900;DHT22;8048;50.644;6.184;2022-08-19T07:28:45;17.10;99.90
15900;DHT22;8048;50.644;6.184;2022-08-19T07:31:13;17.30;99.90
15900;DHT22;8048;50.644;6.184;2022-08-19T07:33:40;17.50;99.90
15900;DHT22;8048;50.644;6.184;2022-08-19T07:36:09;17.50;99.90
15900;DHT22;8048;50.644;6.184;2022-08-19T07:38:37;17.60;99.90
15900;DHT22;8048;50.644;6.184;2022-08-19T07:41:05;17.60;99.90
15900;DHT22;8048;50.644;6.184;2022-08-19T07:43:30;17.70;99.90
15900;DHT22;8048;50.644;6.184;2022-08-19T07:45:56;17.90;99.90
15900;DHT22;8048;50.644;6.184;2022-08-19T07:48:23;18.00;99.90
15900;DHT22;8048;50.644;6.184;2022-08-19T07:50:55;18.30;99.90
15900;DHT22;8048;50.644;6.184;2022-08-19T07:53:22;18.50;99.90
15900;DHT22;8048;50.644;6.184;2022-08-19T07:55:48;18.70;99.90
15900;DHT22;8048;50.644;6.184;2022-08-19T07:58:17;18.90;99.90
15900;DHT22;8048;50.644;6.184;2022-08-19T08:00:45;19.10;99.90
15900;DHT22;8048;50.644;6.184;2022-08-19T08:03:11;19.30;99.90
15900;DHT22;8048;50.644;6.184;2022-08-19T08:05:37;19.40;99.90
15900;DHT22;8048;50.644;6.184;2022-08-19T08:08:21;19.40;99.90
15900;DHT22;8048;50.644;6.184;2022-08-19T08:11:07;19.50;99.90
15900;DHT22;8048;50.644;6.184;2022-08-19T08:13:33;19.40;99.90
15900;DHT22;8048;50.644;6.184;2022-08-19T08:16:02;19.50;99.90
15900;DHT22;8048;50.644;6.184;2022-08-19T08:18:28;19.50;99.90
15900;DHT22;8048;50.644;6.184;2022-08-19T08:20:55;19.40;99.90
15900;DHT22;8048;50.644;6.184;2022-08-19T08:23:20;19.50;99.90
15900;DHT22;8048;50.644;6.184;2022-08-19T08:25:52;19.50;99.90
15900;DHT22;8048;50.644;6.184;2022-08-19T08:28:18;19.60;99.90
15900;DHT22;8048;50.644;6.184;2022-08-19T08:30:45;19.70;99.90
15900;DHT22;8048;50.644;6.184;2022-08-19T08:33:13;19.70;99.90
15900;DHT22;8048;50.644;6.184;2022-08-19T08:35:40;19.80;99.90
15900;DHT22;8048;50.644;6.184;2022-08-19T08:38:07;19.90;99.90
15900;DHT22;8048;50.644;6.184;2022-08-19T08:40:53;19.80;99.90
15900;DHT22;8048;50.644;6.184;2022-08-19T08:46:13;19.90;99.90
15900;DHT22;8048;50.644;6.184;2022-08-19T08:51:20;19.80;99.90
15900;DHT22;8048;50.644;6.184;2022-08-19T08:53:49;19.90;99.90
15900;DHT22;8048;50.644;6.184;2022-08-19T08:56:16;19.90;99.90
15900;DHT22;8048;50.644;6.184;2022-08-19T08:58:56;20.00;99.90
15900;DHT22;8048;50.644;6.184;2022-08-19T09:01:23;19.90;99.90
15900;DHT22;8048;50.644;6.184;2022-08-19T09:03:49;20.10;99.90
15900;DHT22;8048;50.644;6.184;2022-08-19T09:09:04;20.50;99.90
15900;DHT22;8048;50.644;6.184;2022-08-19T09:11:49;20.70;99.90
15900;DHT22;8048;50.644;6.184;2022-08-19T09:14:39;20.70;99.90
15900;DHT22;8048;50.644;6.184;2022-08-19T09:17:11;20.70;99.90
15900;DHT22;8048;50.644;6.184;2022-08-19T09:19:55;20.80;99.90
15900;DHT22;8048;50.644;6.184;2022-08-19T09:22:21;20.80;99.50
15900;DHT22;8048;50.644;6.184;2022-08-19T09:24:51;20.90;99.70
15900;DHT22;8048;50.644;6.184;2022-08-19T09:27:18;20.90;99.00
15900;DHT22;8048;50.644;6.184;2022-08-19T09:29:44;21.00;99.30
15900;DHT22;8048;50.644;6.184;2022-08-19T09:32:10;21.00;99.10
15900;DHT22;8048;50.644;6.184;2022-08-19T09:34:35;21.10;99.10
15900;DHT22;8048;50.644;6.184;2022-08-19T09:37:01;21.00;98.80
15900;DHT22;8048;50.644;6.184;2022-08-19T09:39:28;21.10;98.90
15900;DHT22;8048;50.644;6.184;2022-08-19T09:41:53;21.10;98.80
15900;DHT22;8048;50.644;6.184;2022-08-19T09:44:20;21.10;98.90
15900;DHT22;8048;50.644;6.184;2022-08-19T09:46:46;21.10;98.90
15900;DHT22;8048;50.644;6.184;2022-08-19T09:49:20;21.10;99.20
15900;DHT22;8048;50.644;6.184;2022-08-19T09:51:50;20.90;99.10
15900;DHT22;8048;50.644;6.184;2022-08-19T09:54:16;21.00;98.70
15900;DHT22;8048;50.644;6.184;2022-08-19T09:56:41;20.90;98.70
15900;DHT22;8048;50.644;6.184;2022-08-19T09:59:08;21.00;99.10
15900;DHT22;8048;50.644;6.184;2022-08-19T10:01:34;21.10;98.10
15900;DHT22;8048;50.644;6.184;2022-08-19T10:04:00;21.10;98.60
15900;DHT22;8048;50.644;6.184;2022-08-19T10:06:29;21.20;98.40
15900;DHT22;8048;50.644;6.184;2022-08-19T10:08:59;21.40;98.30
15900;DHT22;8048;50.644;6.184;2022-08-19T10:11:25;21.60;98.10
15900;DHT22;8048;50.644;6.184;2022-08-19T10:13:51;21.80;97.70
15900;DHT22;8048;50.644;6.184;2022-08-19T10:16:20;22.40;97.50
15900;DHT22;8048;50.644;6.184;2022-08-19T10:18:48;22.70;96.50
15900;DHT22;8048;50.644;6.184;2022-08-19T10:21:20;22.90;95.30
15900;DHT22;8048;50.644;6.184;2022-08-19T10:23:47;22.90;95.10
15900;DHT22;8048;50.644;6.184;2022-08-19T10:26:17;22.90;94.40
15900;DHT22;8048;50.644;6.184;2022-08-19T10:28:43;23.00;94.60
15900;DHT22;8048;50.644;6.184;2022-08-19T10:31:18;23.40;94.00
15900;DHT22;8048;50.644;6.184;2022-08-19T10:33:45;23.80;93.20
15900;DHT22;8048;50.644;6.184;2022-08-19T10:36:16;23.70;92.00
15900;DHT22;8048;50.644;6.184;2022-08-19T10:38:43;23.80;91.90
15900;DHT22;8048;50.644;6.184;2022-08-19T10:41:18;23.80;91.80
15900;DHT22;8048;50.644;6.184;2022-08-19T10:43:44;24.00;91.30
15900;DHT22;8048;50.644;6.184;2022-08-19T10:46:12;24.00;91.90
15900;DHT22;8048;50.644;6.184;2022-08-19T10:48:38;24.30;90.40
15900;DHT22;8048;50.644;6.184;2022-08-19T10:51:04;25.10;90.70
15900;DHT22;8048;50.644;6.184;2022-08-19T10:53:48;26.10;88.60
15900;DHT22;8048;50.644;6.184;2022-08-19T10:56:14;26.70;81.70
15900;DHT22;8048;50.644;6.184;2022-08-19T10:58:58;27.10;80.30
15900;DHT22;8048;50.644;6.184;2022-08-19T11:01:26;27.50;76.20
15900;DHT22;8048;50.644;6.184;2022-08-19T11:03:51;27.70;79.60
15900;DHT22;8048;50.644;6.184;2022-08-19T11:06:17;28.80;77.10
15900;DHT22;8048;50.644;6.184;2022-08-19T11:08:44;29.50;74.30
15900;DHT22;8048;50.644;6.184;2022-08-19T11:11:10;29.60;69.00
15900;DHT22;8048;50.644;6.184;2022-08-19T11:13:39;29.40;68.00
15900;DHT22;8048;50.644;6.184;2022-08-19T11:16:17;29.50;70.20
15900;DHT22;8048;50.644;6.184;2022-08-19T11:18:49;29.80;66.90
15900;DHT22;8048;50.644;6.184;2022-08-19T11:21:19;29.90;66.70
15900;DHT22;8048;50.644;6.184;2022-08-19T11:23:47;29.50;66.70
15900;DHT22;8048;50.644;6.184;2022-08-19T11:26:14;29.20;68.00
15900;DHT22;8048;50.644;6.184;2022-08-19T11:28:40;29.20;69.30
15900;DHT22;8048;50.644;6.184;2022-08-19T11:31:14;29.10;68.10
15900;DHT22;8048;50.644;6.184;2022-08-19T11:33:41;28.90;69.20
15900;DHT22;8048;50.644;6.184;2022-08-19T11:36:07;29.20;69.60
15900;DHT22;8048;50.644;6.184;2022-08-19T11:38:34;28.90;68.60
15900;DHT22;8048;50.644;6.184;2022-08-19T11:41:03;29.10;69.80
15900;DHT22;8048;50.644;6.184;2022-08-19T11:43:29;28.80;68.40
15900;DHT22;8048;50.644;6.184;2022-08-19T11:45:55;29.40;69.40
15900;DHT22;8048;50.644;6.184;2022-08-19T11:48:21;29.90;66.30
15900;DHT22;8048;50.644;6.184;2022-08-19T11:50:48;30.10;64.90
15900;DHT22;8048;50.644;6.184;2022-08-19T11:53:14;30.20;65.90
15900;DHT22;8048;50.644;6.184;2022-08-19T11:55:40;30.20;64.50
15900;DHT22;8048;50.644;6.184;2022-08-19T11:58:06;30.80;64.90
15900;DHT22;8048;50.644;6.184;2022-08-19T12:00:34;30.70;61.30
15900;DHT22;8048;50.644;6.184;2022-08-19T12:03:01;30.80;63.70
15900;DHT22;8048;50.644;6.184;2022-08-19T12:05:26;31.10;62.80
15900;DHT22;8048;50.644;6.184;2022-08-19T12:07:52;31.20;61.00
15900;DHT22;8048;50.644;6.184;2022-08-19T12:10:19;31.00;61.30
15900;DHT22;8048;50.644;6.184;2022-08-19T12:12:45;31.10;61.80
15900;DHT22;8048;50.644;6.184;2022-08-19T12:15:11;31.40;61.20
15900;DHT22;8048;50.644;6.184;2022-08-19T12:17:38;31.30;59.80
15900;DHT22;8048;50.644;6.184;2022-08-19T12:20:04;31.40;61.20
15900;DHT22;8048;50.644;6.184;2022-08-19T12:22:31;31.20;60.00
15900;DHT22;8048;50.644;6.184;2022-08-19T12:24:56;31.40;59.20
15900;DHT22;8048;50.644;6.184;2022-08-19T12:27:22;31.10;58.70
15900;DHT22;8048;50.644;6.184;2022-08-19T12:29:47;31.50;59.60
15900;DHT22;8048;50.644;6.184;2022-08-19T12:32:15;31.80;58.90
15900;DHT22;8048;50.644;6.184;2022-08-19T12:34:40;32.80;58.10
15900;DHT22;8048;50.644;6.184;2022-08-19T12:37:06;33.00;56.70
15900;DHT22;8048;50.644;6.184;2022-08-19T12:39:38;32.50;56.80
15900;DHT22;8048;50.644;6.184;2022-08-19T12:42:04;32.00;57.40
15900;DHT22;8048;50.644;6.184;2022-08-19T12:44:30;32.60;58.80
15900;DHT22;8048;50.644;6.184;2022-08-19T12:46:57;33.10;56.30
15900;DHT22;8048;50.644;6.184;2022-08-19T12:49:23;33.20;55.90
15900;DHT22;8048;50.644;6.184;2022-08-19T12:51:50;32.60;55.90
15900;DHT22;8048;50.644;6.184;2022-08-19T12:54:15;32.40;56.80
15900;DHT22;8048;50.644;6.184;2022-08-19T12:56:41;33.10;56.10
15900;DHT22;8048;50.644;6.184;2022-08-19T12:59:09;34.30;55.10
15900;DHT22;8048;50.644;6.184;2022-08-19T13:01:36;34.90;53.70
15900;DHT22;8048;50.644;6.184;2022-08-19T13:04:02;34.40;53.20
15900;DHT22;8048;50.644;6.184;2022-08-19T13:06:28;34.10;53.30
15900;DHT22;8048;50.644;6.184;2022-08-19T13:08:54;33.50;53.80
15900;DHT22;8048;50.644;6.184;2022-08-19T13:11:20;33.10;53.80
15900;DHT22;8048;50.644;6.184;2022-08-19T13:13:50;33.50;53.40
15900;DHT22;8048;50.644;6.184;2022-08-19T13:16:16;33.40;54.10
15900;DHT22;8048;50.644;6.184;2022-08-19T13:18:44;33.00;54.00
15900;DHT22;8048;50.644;6.184;2022-08-19T13:21:11;32.10;54.70
15900;DHT22;8048;50.644;6.184;2022-08-19T13:23:38;31.50;55.80
15900;DHT22;8048;50.644;6.184;2022-08-19T13:26:07;30.90;56.20
15900;DHT22;8048;50.644;6.184;2022-08-19T13:28:33;30.70;57.30
15900;DHT22;8048;50.644;6.184;2022-08-19T13:31:19;30.50;56.90
15900;DHT22;8048;50.644;6.184;2022-08-19T13:34:04;30.20;58.30
15900;DHT22;8048;50.644;6.184;2022-08-19T13:36:32;29.90;58.20
15900;DHT22;8048;50.644;6.184;2022-08-19T13:38:58;29.60;58.00
15900;DHT22;8048;50.644;6.184;2022-08-19T13:41:24;29.50;58.70
15900;DHT22;8048;50.644;6.184;2022-08-19T13:43:49;29.50;59.00
15900;DHT22;8048;50.644;6.184;2022-08-19T13:46:15;29.50;58.90
15900;DHT22;8048;50.644;6.184;2022-08-19T13:48:41;29.20;58.60
15900;DHT22;8048;50.644;6.184;2022-08-19T13:51:08;28.90;59.30
15900;DHT22;8048;50.644;6.184;2022-08-19T13:53:39;28.90;59.70
15900;DHT22;8048;50.644;6.184;2022-08-19T13:56:06;28.80;60.00
15900;DHT22;8048;50.644;6.184;2022-08-19T13:58:32;28.70;60.30
15900;DHT22;8048;50.644;6.184;2022-08-19T14:00:58;28.50;60.80
15900;DHT22;8048;50.644;6.184;2022-08-19T14:03:25;28.40;61.70
15900;DHT22;8048;50.644;6.184;2022-08-19T14:05:51;28.00;61.70
15900;DHT22;8048;50.644;6.184;2022-08-19T14:08:17;27.90;62.10
15900;DHT22;8048;50.644;6.184;2022-08-19T14:10:44;27.90;63.00
15900;DHT22;8048;50.644;6.184;2022-08-19T14:13:13;27.90;62.50
15900;DHT22;8048;50.644;6.184;2022-08-19T14:15:39;27.90;62.70
15900;DHT22;8048;50.644;6.184;2022-08-19T14:18:05;27.70;63.70
15900;DHT22;8048;50.644;6.184;2022-08-19T14:20:34;27.60;63.20
15900;DHT22;8048;50.644;6.184;2022-08-19T14:23:00;27.80;63.50
15900;DHT22;8048;50.644;6.184;2022-08-19T14:25:27;27.90;63.70
15900;DHT22;8048;50.644;6.184;2022-08-19T14:27:54;28.00;63.70
15900;DHT22;8048;50.644;6.184;2022-08-19T14:30:26;27.90;63.70
15900;DHT22;8048;50.644;6.184;2022-08-19T14:32:53;27.80;63.80
15900;DHT22;8048;50.644;6.184;2022-08-19T14:35:19;27.80;64.80
15900;DHT22;8048;50.644;6.184;2022-08-19T14:37:46;27.60;65.20
15900;DHT22;8048;50.644;6.184;2022-08-19T14:40:18;27.40;65.30
15900;DHT22;8048;50.644;6.184;2022-08-19T14:42:45;27.00;66.80
15900;DHT22;8048;50.644;6.184;2022-08-19T14:45:12;26.90;67.90
15900;DHT22;8048;50.644;6.184;2022-08-19T14:47:38;26.80;68.50
15900;DHT22;8048;50.644;6.184;2022-08-19T14:50:07;26.70;69.20
15900;DHT22;8048;50.644;6.184;2022-08-19T14:52:33;26.60;70.30
15900;DHT22;8048;50.644;6.184;2022-08-19T14:54:58;26.50;70.70
15900;DHT22;8048;50.644;6.184;2022-08-19T14:57:24;26.30;71.60
15900;DHT22;8048;50.644;6.184;2022-08-19T14:59:49;26.30;72.00
15900;DHT22;8048;50.644;6.184;2022-08-19T15:02:15;26.20;73.20
15900;DHT22;8048;50.644;6.184;2022-08-19T15:04:41;26.10;73.20
15900;DHT22;8048;50.644;6.184;2022-08-19T15:07:07;26.00;73.30
15900;DHT22;8048;50.644;6.184;2022-08-19T15:09:33;25.90;73.90
15900;DHT22;8048;50.644;6.184;2022-08-19T15:12:00;25.80;74.50
15900;DHT22;8048;50.644;6.184;2022-08-19T15:14:27;25.80;74.90
15900;DHT22;8048;50.644;6.184;2022-08-19T15:16:53;25.80;75.60
15900;DHT22;8048;50.644;6.184;2022-08-19T15:19:19;25.80;75.70
15900;DHT22;8048;50.644;6.184;2022-08-19T15:21:45;25.80;76.70
15900;DHT22;8048;50.644;6.184;2022-08-19T15:24:10;26.00;77.60
15900;DHT22;8048;50.644;6.184;2022-08-19T15:26:36;26.10;76.20
15900;DHT22;8048;50.644;6.184;2022-08-19T15:29:03;26.30;74.40
15900;DHT22;8048;50.644;6.184;2022-08-19T15:31:30;26.20;74.80
15900;DHT22;8048;50.644;6.184;2022-08-19T15:34:01;26.10;75.80
15900;DHT22;8048;50.644;6.184;2022-08-19T15:36:27;26.10;75.50
15900;DHT22;8048;50.644;6.184;2022-08-19T15:38:54;26.00;76.80
15900;DHT22;8048;50.644;6.184;2022-08-19T15:41:28;25.90;77.10
15900;DHT22;8048;50.644;6.184;2022-08-19T15:43:59;25.70;78.90
15900;DHT22;8048;50.644;6.184;2022-08-19T15:46:28;25.60;78.50
15900;DHT22;8048;50.644;6.184;2022-08-19T15:48:54;25.50;79.60
15900;DHT22;8048;50.644;6.184;2022-08-19T15:51:21;25.50;79.50
15900;DHT22;8048;50.644;6.184;2022-08-19T15:53:47;25.40;80.30
15900;DHT22;8048;50.644;6.184;2022-08-19T15:56:13;25.30;80.00
15900;DHT22;8048;50.644;6.184;2022-08-19T15:58:39;25.40;80.60
15900;DHT22;8048;50.644;6.184;2022-08-19T16:01:24;25.40;81.20